Weather at Ljungbyhed Airport

Public forecast

Using degrees Celsius for public forecast. Weather courtesy of forecast.io.

Current aviation weather report (METAR) for Ljungbyhed Airport

Retrieved 2021/06/19 05:20 UTC (25 minutes ago):

ESTL 190520Z AUTO 11008KT 9999 NCD 23/16 Q1012

Aviation forecast (TAF) for Ljungbyhed Airport

Forecast is more than 12 hours old.

Retrieved 2016/03/01 09:33 UTC (5 years ago):

TAF ESTL 010830Z 0109/0124 14004KT 9999 SCT025